createdAt,value
2023-09-04T00:01:08.666Z,13
2023-09-04T00:06:10.145Z,13
2023-09-04T00:11:11.648Z,11
2023-09-04T00:16:13.259Z,16
2023-09-04T00:21:14.787Z,17
2023-09-04T00:26:16.192Z,11
2023-09-04T00:31:17.694Z,21
2023-09-04T00:36:19.236Z,13
2023-09-04T00:41:20.607Z,13
2023-09-04T00:46:22.033Z,13
2023-09-04T00:51:23.746Z,13
2023-09-04T00:56:25.183Z,13
2023-09-04T01:01:26.641Z,15
2023-09-04T01:06:28.022Z,16
2023-09-04T01:11:29.471Z,12
2023-09-04T01:16:31.014Z,11
2023-09-04T01:21:32.478Z,20
2023-09-04T01:26:33.872Z,17
2023-09-04T01:31:35.246Z,12
2023-09-04T01:36:36.684Z,12
2023-09-04T01:41:38.581Z,15
2023-09-04T01:46:40.362Z,12
2023-09-04T01:51:41.749Z,13
2023-09-04T01:56:43.117Z,16
2023-09-04T02:01:44.565Z,17
2023-09-04T02:06:47.011Z,12
2023-09-04T02:11:48.466Z,17
2023-09-04T02:16:49.858Z,15
2023-09-04T02:21:51.287Z,13
2023-09-04T02:26:52.752Z,17
2023-09-04T02:31:54.215Z,15
2023-09-04T02:36:55.684Z,14
2023-09-04T02:41:57.063Z,15
2023-09-04T02:46:58.465Z,17
2023-09-04T02:51:59.928Z,17
2023-09-04T02:57:01.541Z,14
2023-09-04T03:02:02.972Z,15
2023-09-04T03:07:04.439Z,15
2023-09-04T03:12:05.913Z,18
2023-09-04T03:17:07.328Z,15
2023-09-04T03:22:08.717Z,16
2023-09-04T03:27:10.262Z,23
2023-09-04T03:32:11.738Z,18
2023-09-04T03:37:13.252Z,19
2023-09-04T03:42:14.695Z,19
2023-09-04T03:47:16.094Z,16
2023-09-04T03:52:17.474Z,14
2023-09-04T03:57:18.986Z,16
2023-09-04T04:02:20.440Z,17
2023-09-04T04:07:21.873Z,17
2023-09-04T04:12:23.389Z,21
2023-09-04T04:17:24.873Z,18
2023-09-04T04:22:26.252Z,19
2023-09-04T04:27:27.758Z,21
2023-09-04T04:32:29.215Z,21
2023-09-04T04:37:30.685Z,21
2023-09-04T04:42:32.180Z,16
2023-09-04T04:47:33.584Z,14
2023-09-04T04:52:34.974Z,16
2023-09-04T04:57:36.489Z,15
2023-09-04T05:02:37.978Z,14
2023-09-04T05:07:39.388Z,14
2023-09-04T05:12:41.025Z,14
2023-09-04T05:17:42.541Z,13
2023-09-04T05:22:44.287Z,15
2023-09-04T05:27:45.683Z,15
2023-09-04T05:32:47.118Z,14
2023-09-04T05:37:48.699Z,12
2023-09-04T05:42:50.132Z,15
2023-09-04T05:47:51.650Z,13
2023-09-04T05:52:53.224Z,11
2023-09-04T05:57:54.583Z,12
2023-09-04T06:02:56.068Z,11
2023-09-04T06:07:57.634Z,14
2023-09-04T06:12:59.105Z,14
2023-09-04T06:18:00.718Z,13
2023-09-04T06:23:02.207Z,11
2023-09-04T06:28:03.697Z,11
2023-09-04T06:33:05.179Z,16
2023-09-04T06:38:06.606Z,14
2023-09-04T06:43:08.000Z,12
2023-09-04T06:48:09.659Z,11
2023-09-04T06:53:11.163Z,13
2023-09-04T06:58:12.664Z,10
2023-09-04T07:03:14.199Z,11
2023-09-04T07:08:15.587Z,13
2023-09-04T07:13:17.033Z,9
2023-09-04T07:18:18.583Z,10
2023-09-04T07:23:21.946Z,11
2023-09-04T07:28:31.452Z,10
2023-09-04T07:33:33.084Z,12
2023-09-04T07:38:34.620Z,10
2023-09-04T07:43:36.203Z,16
2023-09-04T07:48:37.553Z,10
2023-09-04T07:53:39.038Z,10
2023-09-04T07:58:40.579Z,10
2023-09-04T08:03:42.006Z,10
2023-09-04T08:08:43.381Z,10
2023-09-04T08:13:44.889Z,11
2023-09-04T08:18:46.381Z,9
2023-09-04T08:23:47.819Z,12
2023-09-04T08:28:49.221Z,8
2023-09-04T08:33:50.721Z,10
2023-09-04T08:38:52.164Z,11
2023-09-04T08:43:53.596Z,15
2023-09-04T08:48:54.960Z,9
2023-09-04T08:53:58.376Z,11
2023-09-04T08:59:02.130Z,10
2023-09-04T09:04:03.751Z,9
2023-09-04T09:09:05.241Z,10
2023-09-04T09:14:06.848Z,11
2023-09-04T09:19:08.449Z,11
2023-09-04T09:24:09.841Z,11
2023-09-04T09:29:11.376Z,12
2023-09-04T09:34:12.836Z,11
2023-09-04T09:39:14.337Z,12
2023-09-04T09:44:15.760Z,15
2023-09-04T09:49:17.203Z,10
2023-09-04T09:54:18.719Z,8
2023-09-04T09:59:20.123Z,9
2023-09-04T10:04:21.552Z,10
2023-09-04T10:09:22.941Z,11
2023-09-04T10:14:24.375Z,12
2023-09-04T10:19:25.765Z,11
2023-09-04T10:24:27.143Z,11
2023-09-04T10:29:28.919Z,12
2023-09-04T10:34:30.301Z,11
2023-09-04T10:39:31.793Z,14
2023-09-04T10:44:33.277Z,13
2023-09-04T10:49:34.664Z,14
2023-09-04T10:54:36.043Z,13
2023-09-04T10:59:37.836Z,11
2023-09-04T11:04:39.197Z,11
2023-09-04T11:09:40.646Z,14
2023-09-04T11:14:42.043Z,10
2023-09-04T11:19:43.639Z,12
2023-09-04T11:24:45.033Z,10
2023-09-04T11:29:46.385Z,14
2023-09-04T11:34:47.901Z,11
2023-09-04T11:39:49.580Z,10
2023-09-04T11:44:51.004Z,13
2023-09-04T11:49:52.360Z,12
2023-09-04T11:54:53.768Z,13
2023-09-04T11:59:55.304Z,10
2023-09-04T12:04:56.894Z,15
2023-09-04T12:09:58.257Z,11
2023-09-04T12:14:59.678Z,12
2023-09-04T12:20:01.090Z,12
2023-09-04T12:25:02.541Z,14
2023-09-04T12:30:03.950Z,12
2023-09-04T12:35:05.474Z,14
2023-09-04T12:40:06.985Z,18
2023-09-04T12:45:08.478Z,16
2023-09-04T12:50:09.970Z,17
2023-09-04T12:55:11.379Z,15
2023-09-04T13:00:12.788Z,17
2023-09-04T13:05:14.188Z,14
2023-09-04T13:10:15.708Z,15
2023-09-04T13:15:17.109Z,35
2023-09-04T13:20:18.484Z,23
2023-09-04T13:25:20.097Z,38
2023-09-04T13:30:21.649Z,35
2023-09-04T13:35:23.124Z,63
2023-09-04T13:40:24.736Z,39
2023-09-04T13:45:26.148Z,49
2023-09-04T13:50:27.647Z,34
2023-09-04T13:55:29.282Z,29
2023-09-04T14:00:30.867Z,21
2023-09-04T14:05:32.309Z,24
2023-09-04T14:10:33.941Z,24
2023-09-04T14:15:37.179Z,32
2023-09-04T14:20:39.884Z,17
2023-09-04T14:25:41.263Z,18
2023-09-04T14:30:42.645Z,17
2023-09-04T14:35:44.057Z,16
2023-09-04T14:40:45.610Z,15
2023-09-04T14:45:56.604Z,15
2023-09-04T14:51:09.521Z,17
2023-09-04T14:56:10.890Z,18
2023-09-04T15:01:12.508Z,16
2023-09-04T15:06:14.146Z,16
2023-09-04T15:11:17.056Z,20
2023-09-04T15:16:18.691Z,21
2023-09-04T15:21:20.188Z,18
2023-09-04T15:26:21.608Z,20
2023-09-04T15:31:23.143Z,17
2023-09-04T15:36:24.568Z,15
2023-09-04T15:41:25.985Z,19
2023-09-04T15:46:27.542Z,17
2023-09-04T15:51:28.959Z,19
2023-09-04T15:56:30.362Z,22
2023-09-04T16:01:31.905Z,16
2023-09-04T16:06:33.386Z,17
2023-09-04T16:11:34.901Z,20
2023-09-04T16:16:36.346Z,21
2023-09-04T16:21:38.046Z,19
2023-09-04T16:26:39.654Z,19
2023-09-04T16:31:41.169Z,15
2023-09-04T16:36:42.557Z,16
2023-09-04T16:41:43.960Z,20
2023-09-04T16:46:45.460Z,16
2023-09-04T16:51:56.056Z,19
2023-09-04T16:56:58.909Z,23
2023-09-04T17:02:00.405Z,17
2023-09-04T17:07:01.819Z,23
2023-09-04T17:12:03.376Z,21
2023-09-04T17:17:04.749Z,20
2023-09-04T17:22:06.433Z,23
2023-09-04T17:27:08.017Z,19
2023-09-04T17:32:09.693Z,15
2023-09-04T17:37:11.091Z,19
2023-09-04T17:42:12.570Z,19
2023-09-04T17:47:14.041Z,21
2023-09-04T17:52:15.531Z,23
2023-09-04T17:57:16.904Z,25
2023-09-04T18:02:18.459Z,26
2023-09-04T18:07:19.899Z,19
2023-09-04T18:12:21.350Z,22
2023-09-04T18:17:23.093Z,18
2023-09-04T18:22:24.562Z,21
2023-09-04T18:27:26.438Z,18
2023-09-04T18:32:27.847Z,21
2023-09-04T18:37:29.566Z,18
2023-09-04T18:42:31.055Z,18
2023-09-04T18:47:32.582Z,19
2023-09-04T18:52:34.180Z,19
2023-09-04T18:58:47.888Z,12
2023-09-04T19:03:49.312Z,11
2023-09-04T19:08:50.842Z,15
2023-09-04T19:13:52.406Z,12
2023-09-04T19:18:53.708Z,14
2023-09-04T19:23:55.109Z,11
2023-09-04T19:28:56.537Z,14
2023-09-04T19:33:57.921Z,9
2023-09-04T19:38:59.300Z,12
2023-09-04T19:44:00.814Z,11
2023-09-04T19:49:02.187Z,11
2023-09-04T19:54:03.617Z,8
2023-09-04T19:59:05.033Z,10
2023-09-04T20:04:06.699Z,9
2023-09-04T20:09:08.051Z,9
2023-09-04T20:14:09.449Z,13
2023-09-04T20:19:10.834Z,8
2023-09-04T20:24:12.358Z,7
2023-09-04T20:29:13.897Z,10
2023-09-04T20:34:15.383Z,12
2023-09-04T20:39:16.815Z,9
2023-09-04T20:44:18.271Z,8
2023-09-04T20:49:19.719Z,11
2023-09-04T20:54:21.184Z,8
2023-09-04T20:59:22.585Z,8
2023-09-04T21:04:24.173Z,7
2023-09-04T21:09:25.531Z,10
2023-09-04T21:14:26.975Z,10
2023-09-04T21:19:28.334Z,7
2023-09-04T21:24:29.752Z,9
2023-09-04T21:29:31.195Z,8
2023-09-04T21:34:32.665Z,9
2023-09-04T21:39:34.022Z,8
2023-09-04T21:44:35.428Z,9
2023-09-04T21:49:36.828Z,5
2023-09-04T21:54:38.405Z,9
2023-09-04T21:59:39.882Z,7
2023-09-04T22:04:41.395Z,7
2023-09-04T22:09:42.760Z,9
2023-09-04T22:14:44.283Z,8
2023-09-04T22:19:45.652Z,5
2023-09-04T22:24:47.126Z,7
2023-09-04T22:29:48.540Z,8
2023-09-04T22:34:49.931Z,5
2023-09-04T22:39:51.535Z,6
2023-09-04T22:44:52.901Z,7
2023-09-04T22:49:54.373Z,4
2023-09-04T22:54:55.763Z,5
2023-09-04T22:59:57.145Z,6
2023-09-04T23:04:58.683Z,6
2023-09-04T23:10:00.186Z,6
2023-09-04T23:15:01.592Z,4
2023-09-04T23:20:03.111Z,5
2023-09-04T23:25:04.553Z,5
2023-09-04T23:30:06.126Z,5
2023-09-04T23:35:07.544Z,6
2023-09-04T23:40:08.891Z,6
2023-09-04T23:45:10.386Z,6
2023-09-04T23:50:11.799Z,4
2023-09-04T23:55:13.255Z,6
